Time;durP1;ratioP1;P1;durP2;ratioP2;P2;SDS_P1;SDS_P2;PMS_P1;PMS_P2;Temp;Humidity;BMP_temperature;BMP_pressure;BME280_temperature;BME280_humidity;BME280_pressure;Samples;Min_cycle;Max_cycle;Signal;HPM_P1;HPM_P2
2022/08/25 00:00:21;;;;;;;18.00;4.70;;;;;;;18.27;74.18;101042.29;105874;1264;61640;-69
2022/08/25 00:03:06;;;;;;;20.40;5.10;;;;;;;18.20;74.45;101043.98;105837;1264;75375;-67
2022/08/25 00:05:35;;;;;;;16.50;5.20;;;;;;;18.15;74.52;101043.95;105890;1263;71634;-68
2022/08/25 00:08:06;;;;;;;17.40;4.90;;;;;;;18.13;74.85;101046.63;105898;1264;59757;-67
2022/08/25 00:10:38;;;;;;;15.90;5.20;;;;;;;18.10;75.19;101048.39;106058;1264;63455;-67
2022/08/25 00:13:07;;;;;;;19.40;5.50;;;;;;;18.05;75.37;101048.54;105956;1265;59674;-67
2022/08/25 00:15:37;;;;;;;20.90;5.70;;;;;;;17.98;75.42;101047.23;105879;1264;57945;-68
2022/08/25 00:18:06;;;;;;;17.40;5.20;;;;;;;17.91;76.05;101045.53;106033;1263;71981;-66
2022/08/25 00:20:48;;;;;;;15.70;5.00;;;;;;;17.88;76.65;101048.48;106040;1265;61034;-65
2022/08/25 00:23:19;;;;;;;16.10;5.30;;;;;;;17.87;76.31;101043.05;105962;1264;60464;-67
2022/08/25 00:25:49;;;;;;;31.00;6.50;;;;;;;17.87;75.85;101041.60;106006;1263;63371;-68
2022/08/25 00:28:18;;;;;;;30.00;6.60;;;;;;;17.89;75.72;101039.50;105815;1264;62379;-70
2022/08/25 00:30:48;;;;;;;31.30;6.20;;;;;;;18.01;74.93;101041.90;105996;1263;60636;-66
2022/08/25 00:33:17;;;;;;;28.80;6.20;;;;;;;17.96;73.81;101041.95;105993;1264;63670;-66
2022/08/25 00:35:47;;;;;;;25.70;6.10;;;;;;;17.91;73.92;101036.17;105914;1263;61011;-67
2022/08/25 00:38:15;;;;;;;26.20;6.30;;;;;;;17.90;74.78;101039.59;105838;1264;71120;-68
2022/08/25 00:41:04;;;;;;;23.80;5.50;;;;;;;17.84;75.62;101037.02;105948;1264;63910;-67
2022/08/25 00:43:56;;;;;;;16.00;5.10;;;;;;;17.82;76.57;101039.50;105953;1264;59604;-66
2022/08/25 00:46:35;;;;;;;14.70;5.30;;;;;;;17.81;76.81;101039.06;105936;1264;58967;-65
2022/08/25 00:49:14;;;;;;;23.50;5.60;;;;;;;17.79;77.00;101035.27;105967;1263;72756;-67
2022/08/25 00:52:19;;;;;;;13.60;5.20;;;;;;;17.73;76.84;101032.45;105945;1264;71486;-68
2022/08/25 00:55:07;;;;;;;17.00;5.50;;;;;;;17.64;77.12;101034.34;105937;1264;61756;-67
2022/08/25 00:57:42;;;;;;;15.90;5.60;;;;;;;17.55;77.45;101036.97;105891;1264;74199;-68
2022/08/25 01:00:21;;;;;;;18.10;5.40;;;;;;;17.47;77.62;101033.86;105946;1264;59609;-65
2022/08/25 01:02:50;;;;;;;22.20;5.50;;;;;;;17.37;78.16;101031.67;105880;1263;61269;-68
2022/08/25 01:05:20;;;;;;;23.80;5.60;;;;;;;17.27;78.74;101026.83;105687;1266;64362;-68
2022/08/25 01:07:50;;;;;;;19.90;5.80;;;;;;;17.19;79.35;101029.38;106588;1263;72313;-68
2022/08/25 01:10:21;;;;;;;20.40;6.00;;;;;;;17.19;79.50;101030.91;105859;1263;70599;-69
2022/08/25 01:12:56;;;;;;;17.60;5.30;;;;;;;17.17;79.61;101029.55;105811;1265;72591;-67
2022/08/25 01:15:26;;;;;;;24.40;5.50;;;;;;;17.07;79.62;101025.95;106018;1263;62544;-67
2022/08/25 01:17:57;;;;;;;23.50;6.00;;;;;;;16.98;80.29;101021.12;105821;1264;61851;-69
2022/08/25 01:20:31;;;;;;;17.10;5.20;;;;;;;16.92;80.43;101018.56;105862;1265;72657;-67
2022/08/25 01:23:00;;;;;;;;;;;;;;;16.88;80.66;101018.61;105968;1263;72970;-68
2022/08/25 01:26:10;;;;;;;16.60;5.30;;;;;;;16.85;81.07;101016.23;105988;1263;69213;-67
2022/08/25 01:29:19;;;;;;;20.20;6.60;;;;;;;16.87;81.25;101015.28;105916;1263;72984;-65
2022/08/25 01:31:32;;;;;;;18.30;5.10;;;;;;;16.87;81.17;101013.40;105873;1264;63888;-63
2022/08/25 01:34:01;;;;;;;21.60;5.80;;;;;;;16.86;81.35;101008.57;105846;1266;62176;-64
2022/08/25 01:36:31;;;;;;;17.70;5.30;;;;;;;16.84;81.10;101006.67;105820;1265;75369;-65
2022/08/25 01:39:01;;;;;;;25.00;5.70;;;;;;;16.83;81.40;101011.17;105808;1264;72115;-66
2022/08/25 01:41:47;;;;;;;22.00;6.10;;;;;;;16.86;81.51;101008.23;105833;1263;71139;-66
2022/08/25 01:44:19;;;;;;;21.60;6.10;;;;;;;16.81;81.34;101006.73;105805;1264;74628;-67
2022/08/25 01:46:48;;;;;;;22.70;5.60;;;;;;;16.74;81.58;101007.22;105816;1263;59641;-65
2022/08/25 01:49:17;;;;;;;18.80;5.90;;;;;;;16.69;81.73;101006.85;105697;1266;59200;-66
2022/08/25 01:52:09;;;;;;;21.40;5.60;;;;;;;16.62;81.82;101009.91;105712;1263;74693;-67
2022/08/25 01:54:38;;;;;;;17.60;5.90;;;;;;;16.55;82.18;101011.45;105836;1263;72009;-67
2022/08/25 01:57:08;;;;;;;24.70;6.10;;;;;;;16.61;82.64;101010.54;105833;1263;70961;-67
2022/08/25 01:59:37;;;;;;;18.70;5.50;;;;;;;16.65;82.48;101015.08;105771;1263;74154;-68
2022/08/25 02:02:06;;;;;;;18.10;5.60;;;;;;;16.73;82.10;101014.73;105849;1263;62951;-67
2022/08/25 02:04:36;;;;;;;20.00;5.30;;;;;;;16.74;81.82;101011.10;105634;1267;59393;-67
2022/08/25 02:07:08;;;;;;;20.20;5.80;;;;;;;16.71;81.94;101014.32;105800;1263;75583;-65
2022/08/25 02:09:38;;;;;;;18.00;5.70;;;;;;;16.68;82.03;101013.54;105690;1264;72778;-67
2022/08/25 02:12:08;;;;;;;19.20;6.30;;;;;;;16.61;82.02;101013.48;105867;1263;71391;-68
2022/08/25 02:14:37;;;;;;;19.70;5.70;;;;;;;16.56;82.49;101010.64;105929;1263;74509;-67
2022/08/25 02:17:06;;;;;;;21.20;6.50;;;;;;;16.51;82.37;101008.14;105870;1263;63520;-67
2022/08/25 02:19:35;;;;;;;23.90;6.50;;;;;;;16.42;82.91;101006.34;105886;1263;61642;-67
2022/08/25 02:22:04;;;;;;;27.90;6.40;;;;;;;16.37;83.14;101006.10;105823;1263;73481;-66
2022/08/25 02:24:33;;;;;;;20.60;6.10;;;;;;;16.29;83.20;101006.27;105843;1264;73479;-67
2022/08/25 02:27:03;;;;;;;15.30;5.90;;;;;;;16.21;83.19;101005.60;105867;1263;68495;-67
2022/08/25 02:29:32;;;;;;;32.10;6.90;;;;;;;16.11;82.49;101006.55;105811;1263;73281;-67
2022/08/25 02:32:03;;;;;;;17.30;6.10;;;;;;;15.99;82.87;101006.38;105744;1267;61106;-67
2022/08/25 02:34:32;;;;;;;22.10;6.80;;;;;;;15.87;84.54;101006.45;105993;1263;60615;-66
2022/08/25 02:37:01;;;;;;;22.70;6.30;;;;;;;15.82;85.22;101007.70;105992;1263;75171;-69
2022/08/25 02:39:29;;;;;;;16.70;5.70;;;;;;;15.83;85.22;101011.50;105985;1264;72638;-67
2022/08/25 02:41:58;;;;;;;20.50;6.30;;;;;;;15.85;85.36;101014.85;105988;1264;71648;-69
2022/08/25 02:44:27;;;;;;;15.20;6.20;;;;;;;15.82;85.00;101014.74;106078;1263;73872;-67
2022/08/25 02:46:57;;;;;;;24.10;5.90;;;;;;;15.77;85.36;101016.28;105941;1264;62699;-68
2022/08/25 02:49:27;;;;;;;27.80;6.60;;;;;;;15.71;85.65;101014.55;105948;1263;62262;-65
2022/08/25 02:51:58;;;;;;;29.50;6.00;;;;;;;15.66;85.89;101019.41;105912;1263;73468;-66
2022/08/25 02:54:28;;;;;;;23.00;6.40;;;;;;;15.61;86.11;101021.84;105901;1264;71901;-68
2022/08/25 02:56:58;;;;;;;24.50;6.70;;;;;;;15.59;86.46;101022.58;105952;1263;71346;-68
2022/08/25 02:59:27;;;;;;;21.50;6.40;;;;;;;15.58;86.52;101027.02;105958;1263;71709;-68
2022/08/25 03:01:56;;;;;;;24.40;7.30;;;;;;;15.59;86.62;101025.56;105984;1263;63933;-67
2022/08/25 03:04:25;;;;;;;23.10;6.50;;;;;;;15.54;86.21;101027.89;105985;1264;62019;-67
2022/08/25 03:06:54;;;;;;;20.10;6.10;;;;;;;15.51;86.48;101025.75;106111;1264;76119;-67
2022/08/25 03:09:22;;;;;;;24.30;6.80;;;;;;;15.48;86.65;101035.35;105935;1263;71880;-68
2022/08/25 03:11:51;;;;;;;29.30;6.20;;;;;;;15.45;86.62;101035.92;105921;1264;69918;-70
2022/08/25 03:14:20;;;;;;;19.90;6.30;;;;;;;15.41;86.81;101033.51;106025;1263;72431;-67
2022/08/25 03:16:49;;;;;;;22.10;6.30;;;;;;;15.36;86.78;101037.20;106072;1262;61097;-68
2022/08/25 03:19:18;;;;;;;22.50;6.10;;;;;;;15.31;86.67;101041.48;106050;1263;59745;-67
2022/08/25 03:21:47;;;;;;;24.70;6.90;;;;;;;15.29;87.00;101044.20;106081;1263;72281;-68
2022/08/25 03:24:16;;;;;;;22.10;6.90;;;;;;;15.25;86.82;101047.33;106066;1263;69949;-68
2022/08/25 03:26:54;;;;;;;24.50;7.20;;;;;;;15.21;85.99;101046.63;106127;1263;68876;-68
2022/08/25 03:29:32;;;;;;;23.80;7.20;;;;;;;15.19;87.34;101050.08;106032;1263;73778;-70
2022/08/25 03:32:01;;;;;;;39.20;16.20;;;;;;;15.24;87.81;101047.57;105788;1265;61169;-69
2022/08/25 03:34:30;;;;;;;15.70;6.50;;;;;;;15.27;87.36;101054.48;106070;1263;59785;-68
2022/08/25 03:36:59;;;;;;;20.20;8.70;;;;;;;15.25;87.14;101056.10;106040;1263;72140;-68
2022/08/25 03:39:28;;;;;;;21.20;6.50;;;;;;;15.24;87.19;101057.19;106446;1263;72420;-68
2022/08/25 03:41:56;;;;;;;24.50;6.60;;;;;;;15.24;87.17;101058.63;105926;1263;71472;-68
2022/08/25 03:44:25;;;;;;;18.40;6.20;;;;;;;15.24;87.33;101053.70;106000;1264;73260;-68
2022/08/25 03:46:54;;;;;;;26.20;7.30;;;;;;;15.29;87.23;101054.83;105925;1263;60882;-69
2022/08/25 03:49:23;;;;;;;23.80;6.90;;;;;;;15.34;87.24;101053.55;106050;1263;61410;-70
2022/08/25 03:51:53;;;;;;;20.30;6.20;;;;;;;15.38;86.70;101057.61;106065;1262;74180;-72
2022/08/25 03:54:24;;;;;;;23.00;7.10;;;;;;;15.44;86.63;101058.98;105965;1263;72250;-71
2022/08/25 03:56:53;;;;;;;24.50;7.00;;;;;;;15.53;86.27;101065.80;106050;1263;69362;-69
2022/08/25 03:59:22;;;;;;;22.30;6.40;;;;;;;15.66;85.75;101063.95;105981;1263;71506;-69
2022/08/25 04:01:51;;;;;;;28.00;6.80;;;;;;;15.73;85.17;101068.10;106024;1263;59857;-68
2022/08/25 04:04:23;;;;;;;16.60;6.40;;;;;;;15.86;84.49;101070.96;106030;1263;61752;-68
2022/08/25 04:06:52;;;;;;;20.40;6.20;;;;;;;15.93;84.33;101071.38;106032;1263;71744;-68
2022/08/25 04:09:21;;;;;;;31.70;7.60;;;;;;;16.02;83.89;101071.80;105983;1263;70792;-68
2022/08/25 04:11:51;;;;;;;21.60;7.30;;;;;;;16.05;83.65;101071.17;106051;1263;68529;-69
2022/08/25 04:14:22;;;;;;;18.00;6.60;;;;;;;16.07;83.79;101067.16;105982;1264;74131;-68
2022/08/25 04:16:51;;;;;;;25.00;7.10;;;;;;;16.10;83.65;101066.15;106162;1263;61962;-70
2022/08/25 04:19:21;;;;;;;21.40;7.40;;;;;;;16.16;83.45;101064.38;105850;1263;60979;-69
2022/08/25 04:21:50;;;;;;;30.40;7.70;;;;;;;16.24;83.48;101068.98;106014;1263;73680;-69
2022/08/25 04:24:24;;;;;;;24.70;7.20;;;;;;;16.31;83.01;101070.43;105966;1264;72257;-68
2022/08/25 04:26:53;;;;;;;29.40;8.10;;;;;;;16.34;82.73;101061.16;106107;1263;69026;-68
2022/08/25 04:29:24;;;;;;;19.80;6.90;;;;;;;16.39;82.42;101065.23;106041;1264;71555;-71
2022/08/25 04:31:54;;;;;;;26.80;7.40;;;;;;;16.44;81.97;101066.21;105763;1266;60594;-67
2022/08/25 04:34:25;;;;;;;22.20;7.30;;;;;;;16.50;82.12;101062.86;105819;1263;60272;-69
2022/08/25 04:37:02;;;;;;;29.50;8.90;;;;;;;16.61;81.46;101066.10;106007;1263;75569;-68
2022/08/25 04:39:31;;;;;;;24.60;7.90;;;;;;;16.67;81.04;101066.73;105934;1263;71378;-69
2022/08/25 04:42:01;;;;;;;24.60;8.30;;;;;;;16.75;80.82;101065.05;105961;1263;68392;-70
2022/08/25 04:44:32;;;;;;;27.60;7.30;;;;;;;16.83;79.89;101063.14;105744;1263;74511;-70
2022/08/25 04:47:01;;;;;;;25.50;7.80;;;;;;;16.91;79.73;101060.71;105843;1263;62820;-69
2022/08/25 04:49:30;;;;;;;20.60;7.20;;;;;;;16.98;79.42;101060.88;105752;1263;61279;-69
2022/08/25 04:51:59;;;;;;;27.40;9.10;;;;;;;17.07;78.17;101054.24;105824;1264;74619;-68
2022/08/25 04:54:28;;;;;;;25.80;7.00;;;;;;;17.16;77.89;101054.60;105868;1264;62880;-67
2022/08/25 04:57:05;;;;;;;28.00;7.70;;;;;;;17.28;77.60;101054.77;105771;1264;71125;-69
2022/08/25 04:59:34;;;;;;;24.60;7.10;;;;;;;17.41;76.67;101055.98;105836;1263;73572;-68
2022/08/25 05:02:05;;;;;;;28.20;8.50;;;;;;;17.52;75.91;101056.52;105802;1263;62846;-68
2022/08/25 05:04:35;;;;;;;25.40;7.80;;;;;;;17.64;75.14;101052.68;105837;1263;60802;-69
2022/08/25 05:07:05;;;;;;;23.20;7.90;;;;;;;17.74;74.67;101054.89;105857;1264;64357;-69
2022/08/25 05:09:34;;;;;;;27.90;7.40;;;;;;;17.85;74.70;101056.67;105957;1263;71666;-69
2022/08/25 05:12:04;;;;;;;20.70;7.20;;;;;;;17.93;73.44;101049.16;105791;1264;71595;-69
2022/08/25 05:14:34;;;;;;;23.00;6.40;;;;;;;18.08;72.81;101046.52;105792;1265;74268;-68
2022/08/25 05:17:02;;;;;;;17.90;5.90;;;;;;;18.16;71.56;101049.34;105885;1264;61124;-70
2022/08/25 05:19:32;;;;;;;16.50;6.40;;;;;;;18.23;70.61;101052.73;106013;1263;60170;-68
2022/08/25 05:22:01;;;;;;;18.20;6.10;;;;;;;18.26;70.18;101047.78;106035;1261;75022;-70
2022/08/25 05:24:29;;;;;;;16.00;5.90;;;;;;;18.38;69.85;101046.45;106018;1263;72593;-69
2022/08/25 05:26:58;;;;;;;16.00;5.70;;;;;;;18.48;69.08;101049.37;105995;1264;61505;-70
2022/08/25 05:29:27;;;;;;;17.20;5.70;;;;;;;18.57;68.87;101046.98;106055;1263;62577;-70
2022/08/25 05:31:56;;;;;;;18.30;6.30;;;;;;;18.69;68.74;101047.13;105968;1264;59661;-70
2022/08/25 05:34:25;;;;;;;12.00;5.50;;;;;;;18.83;67.16;101046.76;105969;1263;58283;-70
2022/08/25 05:36:56;;;;;;;16.40;5.80;;;;;;;18.94;65.91;101044.33;106093;1263;63733;-71
2022/08/25 05:39:24;;;;;;;17.90;5.90;;;;;;;19.03;66.11;101040.48;105949;1263;72075;-70
2022/08/25 05:41:54;;;;;;;26.00;6.90;;;;;;;19.14;65.82;101040.49;106040;1262;59604;-69
2022/08/25 05:44:23;;;;;;;20.90;6.50;;;;;;;19.25;65.21;101039.33;106007;1263;62636;-70
2022/08/25 05:46:52;;;;;;;14.70;6.20;;;;;;;19.38;64.04;101040.17;105994;1263;60631;-69
2022/08/25 05:49:21;;;;;;;18.10;6.90;;;;;;;19.51;63.18;101039.36;105963;1263;61087;-69
2022/08/25 05:51:50;;;;;;;14.00;6.20;;;;;;;19.60;62.93;101035.18;106021;1263;73467;-69
2022/08/25 05:54:19;;;;;;;18.50;6.70;;;;;;;19.75;62.30;101037.62;105841;1263;73196;-71
2022/08/25 05:56:47;;;;;;;14.30;6.20;;;;;;;19.89;61.51;101036.86;105950;1263;71092;-69
2022/08/25 05:59:16;;;;;;;16.20;6.80;;;;;;;20.03;60.76;101035.50;105967;1263;63826;-71
2022/08/25 06:04:32;;;;;;;15.30;6.10;;;;;;;20.28;60.42;101029.48;106017;1263;59583;-70
2022/08/25 06:07:01;;;;;;;16.70;6.00;;;;;;;20.44;59.92;101028.27;106066;1263;73471;-68
2022/08/25 06:09:30;;;;;;;19.60;6.00;;;;;;;20.64;58.53;101030.70;106008;1263;72238;-78
2022/08/25 06:11:58;;;;;;;20.70;6.50;;;;;;;20.81;59.77;101029.88;106188;1263;71330;-77
2022/08/25 06:14:27;;;;;;;14.20;5.30;;;;;;;20.98;59.28;101028.67;106064;1263;63300;-74
2022/08/25 06:16:56;;;;;;;18.80;5.60;;;;;;;21.17;56.36;101030.70;106116;1263;57989;-75
2022/08/25 06:19:25;;;;;;;11.70;5.50;;;;;;;21.33;57.54;101030.11;105889;1263;60674;-74
2022/08/25 06:21:56;;;;;;;15.30;5.60;;;;;;;21.50;55.05;101032.14;106225;1263;64356;-78
2022/08/25 06:24:27;;;;;;;10.00;4.70;;;;;;;21.66;54.85;101028.36;106325;1263;60874;-81
2022/08/25 06:26:56;;;;;;;9.60;3.80;;;;;;;21.83;55.08;101029.37;106377;1263;69858;-78
2022/08/25 06:29:25;;;;;;;10.20;4.10;;;;;;;21.99;51.88;101030.73;106346;1263;63170;-79
2022/08/25 06:31:54;;;;;;;9.20;4.30;;;;;;;22.14;51.35;101031.30;106319;1262;58827;-75
2022/08/25 06:34:23;;;;;;;9.80;4.00;;;;;;;22.28;49.98;101032.70;106217;1263;59497;-76
2022/08/25 06:36:52;;;;;;;14.20;3.70;;;;;;;22.43;48.63;101032.32;106166;1263;63976;-76
2022/08/25 06:39:21;;;;;;;8.60;3.70;;;;;;;22.56;48.17;101028.00;106147;1263;70589;-75
2022/08/25 06:41:53;;;;;;;10.40;4.20;;;;;;;22.65;48.68;101028.15;106069;1264;71092;-76
2022/08/25 06:44:26;;;;;;;9.60;3.40;;;;;;;22.79;48.25;101026.88;105813;1267;65391;-78
2022/08/25 06:46:56;;;;;;;9.20;3.80;;;;;;;22.94;47.73;101031.23;105859;1263;59952;-77
2022/08/25 06:49:27;;;;;;;9.70;4.10;;;;;;;23.08;47.80;101030.38;105939;1264;60220;-77
2022/08/25 06:52:02;;;;;;;13.10;4.10;;;;;;;23.19;46.58;101025.93;106100;1263;64691;-78
2022/08/25 06:54:31;;;;;;;7.80;3.70;;;;;;;23.29;45.72;101024.88;106136;1263;71479;-75
2022/08/25 06:56:59;;;;;;;18.30;4.50;;;;;;;23.41;46.83;101027.65;106005;1264;69987;-76
2022/08/25 06:59:29;;;;;;;12.20;3.90;;;;;;;23.53;46.58;101023.92;105950;1263;75550;-77
2022/08/25 07:02:02;;;;;;;10.20;4.50;;;;;;;23.69;45.55;101024.95;105920;1264;59928;-74
2022/08/25 07:04:33;;;;;;;10.40;4.20;;;;;;;23.82;45.64;101025.75;106165;1263;61839;-76
2022/08/25 07:07:03;;;;;;;11.60;3.90;;;;;;;23.94;45.95;101027.79;106111;1263;75008;-78
2022/08/25 07:09:33;;;;;;;13.50;3.90;;;;;;;24.05;45.38;101024.27;106199;1263;71395;-79
2022/08/25 07:12:06;;;;;;;11.50;3.90;;;;;;;24.12;44.46;101025.15;106047;1266;59758;-70
2022/08/25 07:14:36;;;;;;;9.60;4.00;;;;;;;24.19;43.85;101021.77;106034;1263;74985;-69
2022/08/25 07:17:04;;;;;;;14.90;4.50;;;;;;;24.28;44.58;101023.08;106078;1263;60049;-68
2022/08/25 07:19:41;;;;;;;11.80;4.20;;;;;;;24.42;44.56;101021.20;106062;1263;58691;-71
2022/08/25 07:22:11;;;;;;;11.90;4.90;;;;;;;24.53;44.20;101017.45;105985;1263;63085;-70
2022/08/25 07:24:40;;;;;;;11.50;4.40;;;;;;;24.69;43.52;101016.54;106031;1263;72691;-67
2022/08/25 07:27:09;;;;;;;10.90;4.20;;;;;;;24.83;43.28;101012.84;105997;1263;60652;-69
2022/08/25 07:29:38;;;;;;;10.60;4.40;;;;;;;24.97;42.96;101013.13;106035;1263;73589;-72
2022/08/25 07:32:10;;;;;;;10.70;3.90;;;;;;;25.08;41.53;101007.80;106131;1263;61890;-76
2022/08/25 07:37:25;;;;;;;10.60;3.80;;;;;;;25.28;38.69;101001.61;106213;1264;74337;-71
2022/08/25 07:40:25;;;;;;;8.90;3.80;;;;;;;25.40;37.53;100998.86;105961;1263;62288;-71
2022/08/25 07:42:58;;;;;;;9.30;3.50;;;;;;;25.52;36.81;100994.03;106320;1263;60285;-80
2022/08/25 07:45:32;;;;;;;9.20;3.70;;;;;;;25.69;36.95;100989.95;106094;1263;63477;-79
2022/08/25 07:48:10;;;;;;;10.50;3.90;;;;;;;25.80;36.29;100987.52;106121;1263;61493;-78
2022/08/25 07:50:45;;;;;;;11.10;3.70;;;;;;;25.86;36.05;100981.98;105919;1263;61742;-76
2022/08/25 07:53:16;;;;;;;7.60;3.10;;;;;;;25.92;35.01;100980.46;106200;1264;64905;-76
2022/08/25 07:55:45;;;;;;;11.60;3.50;;;;;;;26.06;35.63;100974.95;107637;1263;72348;-78
2022/08/25 07:58:15;;;;;;;10.70;3.80;;;;;;;26.16;35.80;100973.01;106272;1263;72048;-73
2022/08/25 08:00:47;;;;;;;12.10;3.50;;;;;;;26.16;35.45;100971.07;106166;1264;63096;-79
2022/08/25 08:03:19;;;;;;;8.20;4.10;;;;;;;26.21;35.54;100968.39;106058;1267;58107;-78
2022/08/25 08:06:12;;;;;;;10.40;3.30;;;;;;;26.32;35.24;100966.90;106416;1263;60979;-78
2022/08/25 08:08:44;;;;;;;9.40;3.40;;;;;;;26.39;35.25;100964.77;106196;1263;63712;-78
2022/08/25 08:11:37;;;;;;;8.90;3.20;;;;;;;26.47;35.10;100965.09;106052;1267;61173;-76
2022/08/25 08:14:13;;;;;;;8.80;3.70;;;;;;;26.63;35.47;100965.05;105866;1263;70346;-78
2022/08/25 08:16:44;;;;;;;9.20;3.50;;;;;;;26.65;34.60;100957.39;106282;1263;74823;-82
2022/08/25 08:19:14;;;;;;;7.40;3.60;;;;;;;26.73;35.40;100956.04;107058;1263;60859;-78
2022/08/25 08:21:45;;;;;;;7.20;3.50;;;;;;;26.82;35.12;100954.20;106325;1264;60355;-82
2022/08/25 08:24:14;;;;;;;14.00;3.30;;;;;;;26.91;34.33;100949.75;106102;1263;63145;-76
2022/08/25 08:27:08;;;;;;;8.30;3.20;;;;;;;27.03;34.46;100946.02;105992;1264;72772;-77
2022/08/25 08:29:39;;;;;;;10.00;3.60;;;;;;;27.07;34.22;100942.42;106711;1263;59756;-79
2022/08/25 08:32:12;;;;;;;9.20;3.40;;;;;;;27.16;34.61;100941.90;105940;1267;73228;-78
2022/08/25 08:34:41;;;;;;;8.90;3.40;;;;;;;27.29;34.66;100947.16;106081;1264;61091;-76
2022/08/25 08:37:11;;;;;;;9.50;3.20;;;;;;;27.39;34.59;100945.33;105904;1264;59536;-79
2022/08/25 08:39:43;;;;;;;;;;;;;;;27.54;34.19;100942.12;106046;1264;74197;-80
2022/08/25 08:42:47;;;;;;;6.00;3.10;;;;;;;27.63;34.06;100945.86;105984;1263;72711;-76
2022/08/25 08:45:36;;;;;;;8.90;3.20;;;;;;;27.71;33.93;100939.92;106067;1262;61224;-76
2022/08/25 08:48:39;;;;;;;12.00;3.40;;;;;;;27.91;33.98;100938.95;105882;1263;62595;-76
2022/08/25 08:51:23;;;;;;;11.80;3.20;;;;;;;28.02;33.90;100935.41;105948;1264;59619;-75
2022/08/25 08:54:06;;;;;;;7.50;2.60;;;;;;;28.16;33.68;100931.48;105830;1263;57891;-76
2022/08/25 08:56:49;;;;;;;12.10;3.20;;;;;;;28.37;33.15;100931.92;106103;1263;74909;-77
2022/08/25 08:59:24;;;;;;;9.50;2.80;;;;;;;28.48;31.99;100936.37;106031;1264;61467;-77
2022/08/25 09:02:00;;;;;;;8.40;2.70;;;;;;;28.55;30.97;100928.93;106064;1267;59558;-78
2022/08/25 09:04:50;;;;;;;13.50;2.90;;;;;;;28.66;30.68;100924.08;106036;1263;63219;-70
2022/08/25 09:07:46;;;;;;;11.10;3.00;;;;;;;28.80;31.00;100913.99;105826;1263;59684;-74
2022/08/25 09:10:19;;;;;;;9.30;2.50;;;;;;;28.97;30.51;100914.71;105777;1265;58891;-77
2022/08/25 09:13:14;;;;;;;12.20;3.30;;;;;;;29.07;29.52;100910.20;105908;1263;63099;-72
2022/08/25 09:19:35;;;;;;;11.00;3.10;;;;;;;29.42;28.53;100897.39;106135;1264;70359;-77
2022/08/25 09:22:39;;;;;;;10.60;2.80;;;;;;;29.61;28.97;100893.31;106025;1267;63156;-74
2022/08/25 09:25:34;;;;;;;9.60;2.40;;;;;;;29.82;28.27;100896.89;105810;1263;59696;-77
2022/08/25 09:28:37;;;;;;;;;;;;;;;29.91;26.72;100888.95;105902;1263;60510;-74
2022/08/25 09:31:24;;;;;;;13.10;2.80;;;;;;;29.92;26.68;100885.96;105838;1263;74483;-76
2022/08/25 09:34:02;;;;;;;8.70;2.80;;;;;;;29.98;26.37;100880.89;105785;1267;61844;-73
2022/08/25 09:36:32;;;;;;;6.60;2.30;;;;;;;30.15;27.14;100874.77;105628;1264;70707;-72
2022/08/25 09:39:07;;;;;;;7.20;2.20;;;;;;;30.32;26.73;100873.58;105722;1264;62517;-69
2022/08/25 09:41:51;;;;;;;;;;;;;;;30.42;26.67;100868.49;105804;1266;59693;-68
2022/08/25 09:44:26;;;;;;;7.50;2.20;;;;;;;30.52;26.06;100867.68;105616;1267;61214;-70
2022/08/25 09:47:01;;;;;;;14.70;2.40;;;;;;;30.69;26.16;100860.11;105586;1265;63632;-72
2022/08/25 09:49:34;;;;;;;9.00;2.10;;;;;;;30.68;25.61;100849.14;105610;1266;72782;-73
2022/08/25 09:52:39;;;;;;;9.40;2.60;;;;;;;30.88;25.59;100849.30;105695;1265;59224;-71
2022/08/25 09:55:12;;;;;;;10.70;2.30;;;;;;;30.97;24.99;100842.45;105971;1263;74065;-81
2022/08/25 09:57:42;;;;;;;8.40;2.30;;;;;;;30.98;24.67;100845.83;106141;1263;59691;-77
2022/08/25 10:00:13;;;;;;;9.00;2.40;;;;;;;31.10;24.63;100840.31;106064;1263;60575;-73
2022/08/25 10:03:03;;;;;;;8.50;1.70;;;;;;;31.15;23.84;100837.17;105696;1264;65651;-72
2022/08/25 10:05:46;;;;;;;8.00;2.00;;;;;;;31.26;22.59;100825.49;106088;1263;61908;-72
2022/08/25 10:08:32;;;;;;;9.20;1.90;;;;;;;31.49;22.46;100821.50;105656;1263;59999;-71
2022/08/25 10:11:14;;;;;;;14.50;2.30;;;;;;;31.69;21.54;100826.48;106007;1263;63417;-71
2022/08/25 10:13:51;;;;;;;5.50;1.70;;;;;;;31.86;20.56;100816.11;105911;1263;60584;-70
2022/08/25 10:16:31;;;;;;;14.50;2.00;;;;;;;32.07;21.18;100811.97;105892;1262;59099;-72
2022/08/25 10:19:09;;;;;;;12.50;2.20;;;;;;;32.32;21.06;100804.93;106043;1263;74816;-72
2022/08/25 10:21:41;;;;;;;6.90;1.60;;;;;;;32.44;20.82;100797.80;105979;1263;71730;-71
2022/08/25 10:24:12;;;;;;;9.80;1.80;;;;;;;32.55;20.42;100795.96;105791;1263;70804;-72
2022/08/25 10:26:54;;;;;;;8.70;1.80;;;;;;;32.65;19.90;100801.26;105743;1263;72879;-71
2022/08/25 10:29:49;;;;;;;7.80;1.60;;;;;;;32.64;19.80;100796.33;105787;1263;59676;-72
2022/08/25 10:32:50;;;;;;;10.60;1.70;;;;;;;33.02;20.12;100790.42;105623;1263;60671;-72
2022/08/25 10:35:33;;;;;;;11.80;1.90;;;;;;;33.35;18.95;100788.27;105796;1263;74254;-75
2022/08/25 10:38:23;;;;;;;6.60;2.20;;;;;;;33.72;19.15;100785.69;105724;1264;72294;-73
2022/08/25 10:41:18;;;;;;;7.40;2.20;;;;;;;33.92;18.86;100784.88;105848;1263;61309;-76
2022/08/25 10:45:41;;;;;;;10.50;1.90;;;;;;;33.90;18.41;100789.58;105944;1263;62742;-76
2022/08/25 10:47:31;;;;;;;8.20;1.90;;;;;;;34.14;18.65;100785.89;105966;1263;59663;-74
2022/08/25 10:50:36;;;;;;;10.80;1.70;;;;;;;34.22;18.40;100781.61;105808;1263;60409;-72
2022/08/25 10:53:26;;;;;;;11.40;2.10;;;;;;;34.73;18.75;100784.61;105863;1263;75312;-74
2022/08/25 10:56:23;;;;;;;7.90;1.50;;;;;;;35.04;18.40;100781.71;106199;1262;73503;-74
2022/08/25 10:59:05;;;;;;;9.90;1.50;;;;;;;35.32;18.04;100776.23;106225;1261;59752;-72
2022/08/25 11:01:49;;;;;;;8.60;1.90;;;;;;;35.57;18.43;100776.23;106100;1260;74004;-75
2022/08/25 11:04:41;;;;;;;5.90;1.50;;;;;;;35.69;17.91;100779.52;106022;1263;61819;-73
2022/08/25 11:07:36;;;;;;;7.20;1.90;;;;;;;35.89;17.56;100774.69;106088;1263;59473;-74
2022/08/25 11:10:14;;;;;;;5.90;1.60;;;;;;;36.06;17.56;100771.64;105986;1263;63834;-75
2022/08/25 11:12:58;;;;;;;8.90;2.10;;;;;;;35.78;17.52;100773.14;106183;1261;71251;-75
2022/08/25 11:15:51;;;;;;;10.00;1.70;;;;;;;36.01;17.03;100765.68;105986;1263;70183;-73
2022/08/25 11:18:46;;;;;;;;;;;;;;;35.63;17.79;100767.48;106136;1263;65332;-74
2022/08/25 11:21:30;;;;;;;8.10;1.70;;;;;;;35.30;17.71;100770.36;106035;1263;61727;-72
2022/08/25 11:24:28;;;;;;;11.60;1.80;;;;;;;34.98;17.83;100762.65;106120;1263;57955;-74
2022/08/25 11:26:59;;;;;;;10.50;2.30;;;;;;;35.38;18.15;100756.10;106161;1263;63073;-73
2022/08/25 11:29:35;;;;;;;;;;;;;;;35.51;17.96;100747.02;106160;1263;72050;-75
2022/08/25 11:32:07;;;;;;;10.90;1.90;;;;;;;35.53;17.88;100743.98;106089;1263;70730;-74
2022/08/25 11:34:37;;;;;;;16.20;2.40;;;;;;;36.03;17.62;100742.29;107281;1263;65832;-81
2022/08/25 11:37:27;;;;;;;8.00;2.10;;;;;;;36.12;16.84;100732.13;107753;1263;59016;-84
2022/08/25 11:40:15;;;;;;;9.90;1.80;;;;;;;36.03;17.18;100735.92;107344;1263;59556;-82
2022/08/25 11:43:10;;;;;;;15.00;2.30;;;;;;;35.95;17.32;100736.23;106855;1263;66232;-81
2022/08/25 11:46:38;;;;;;;6.50;1.60;;;;;;;36.10;17.11;100723.59;105822;1263;62935;-82
2022/08/25 11:49:36;;;;;;;11.30;1.90;;;;;;;36.78;16.44;100715.15;107308;1263;59772;-77
2022/08/25 11:52:31;;;;;;;8.30;1.90;;;;;;;36.89;16.23;100705.23;106095;1263;62650;-74
2022/08/25 11:55:28;;;;;;;10.50;1.70;;;;;;;37.11;16.51;100706.76;106047;1263;59662;-72
2022/08/25 11:58:20;;;;;;;10.50;2.00;;;;;;;37.84;16.51;100705.08;106000;1263;60707;-72